Terminal Aerodrome Forecast
Issued by NWS Charleston, WV

Home | Current Version | Previous Version | Text Only | Print | Product List | Glossary On
Versions: 1 2 3 4 5 6 7 8 9 10 11 12 13 14 15 16 17 18 19 20 21 22 23 24 25
000
FTUS41 KRLX 291120
TAFCRW
TAF
KCRW 291120Z 2912/3012 VRB03KT P6SM -SHRA BKN035
      TEMPO 2912/2915 BKN025
     FM291700 34005KT P6SM SHRA VCTS OVC035CB
     FM300000 29004KT 6SM SHRA VCTS OVC025CB
     FM300300 28004KT 5SM SHRA OVC015
     FM300700 VRB03KT 4SM SHRA OVC010=

USA.gov is the U.S. government's official web portal to all federal, state and local government web resources and services.